West Point, KY

04:16 AM EDT am 21. April 2015 (GMT -0400)
Godman Army Air Field | | Change Station
CLOSE
Current Station
Flughafen
Location: Fort Knox,
Höhe: 755 ft
Wetterstationen in der Umgebung

Höhe 755 ft 37.91 °N, 85.97 °W | Updated 18 minutes ago

Heiter
Heiter
41 °F
gefühlte 38 °F
N
5
Wind Wechselnd Wind aus Süd-Südwest

Heute
Max. -- | schwach -- °F
--% Regenrisiko
Gestern
Max. -- | schwach -- °F
Precip. -- inch
7:00 AM 8:25 PM
Erstes Viertel, 9% visible
Druck 29.86 inch
Sichtweite 10.0 Meilen
Wolken Heiter
Windchill 38 °F
Taupunkt 36 °F
Feuchtigkeit 81%
Regen 0.00 inch
Schneehöhe Nicht verfügbar..
UV 0 von 12
Pollen 6.90 von 12
Luftqualität Nicht verfügbar..
Flu Activity Local Activity
METAR KFTK 210758Z AUTO 20004KT 10SM CLR 05/02 A2985 RMK AO2 SLP112 T00510020

More Conditions Fewer Conditions

Druck 29.86 inch
Sichtweite 10.0 Meilen
Wolken Heiter
Windchill 38 °F
Taupunkt 36 °F
Feuchtigkeit 81%
Regen 0.00 inch
Schneehöhe Nicht verfügbar..
UV 0 von 12
Pollen 6.90 von 12
Luftqualität Nicht verfügbar..
Flu Activity Local Activity
METAR KFTK 210758Z AUTO 20004KT 10SM CLR 05/02 A2985 RMK AO2 SLP112 T00510020

More Conditions Fewer Conditions

10-Day Weather Forecast

Almanac

Astronomie

Apr. 21, 2015 Aufgang Untergang
Genaue Zeit
Bürgerliche Dämmerung
Nautische Dämmerung
Astronomische Dämmerung
Mond
Länge des sichtbaren Lichts
Tageslänge
Tomorrow will be .
, % of the Moon is Illuminated

Heutige Rekorde

State Highs State Lows

Community

WunderPhotos

Upload Photos

1,815,329 Fotos hochgeladen!

WunderBlogs® & News

Nearby

Luftqualität

  Luftqualität LQ Index Schadstoff
Not available.

Schneehöhe

Station Depth Höhe

Erdbebenaktivität

Stadt Distance Mag. Time & Date
Minimum magnitude displayed is 2.5.

küstennahe Wassertemperaturen

Ort Temperatur

Stations

Wetterstationen in der Umgebung

Stationsstandort Temp. Windchill Taupunkt Feuchtigkeit Wind Precip. Höhe Aktualisiert Art